Time;durP1;ratioP1;P1;durP2;ratioP2;P2;SDS_P1;SDS_P2;PMS_P1;PMS_P2;Temp;Humidity;BMP_temperature;BMP_pressure;BME280_temperature;BME280_humidity;BME280_pressure;Samples;Min_cycle;Max_cycle;Signal;HPM_P1;HPM_P2
2022/01/06 00:01:18;;;;;;;0.50;0.50;;;;;;;3.54;72.72;101720.75;5037617;28;20051;-73
2022/01/06 00:03:43;;;;;;;0.40;0.40;;;;;;;3.55;73.05;101720.84;5031117;28;20025;-73
2022/01/06 00:06:10;;;;;;;0.43;0.43;;;;;;;3.63;71.94;101726.59;5030561;28;20026;-74
2022/01/06 00:08:37;;;;;;;0.50;0.50;;;;;;;3.61;73.29;101735.94;5021277;28;20068;-74
2022/01/06 00:11:05;;;;;;;0.30;0.30;;;;;;;3.62;72.82;101740.31;5020255;28;20022;-73
2022/01/06 00:13:46;;;;;;;0.43;0.43;;;;;;;3.55;73.52;101731.22;5019689;28;20030;-72
2022/01/06 00:23:53;;;;;;;0.40;0.40;;;;;;;3.55;72.75;101745.88;5039027;28;20060;-73
2022/01/06 00:26:18;;;;;;;0.43;0.43;;;;;;;3.53;72.99;101743.16;5039827;28;20041;-73
2022/01/06 00:28:44;;;;;;;0.40;0.40;;;;;;;3.50;72.01;101742.97;5026728;28;20069;-72
2022/01/06 00:31:09;;;;;;;0.47;0.47;;;;;;;3.52;71.60;101738.78;5020438;28;20049;-74
2022/01/06 00:33:34;;;;;;;0.30;0.30;;;;;;;3.62;69.79;101736.84;5038714;28;20068;-73
2022/01/06 00:36:00;;;;;;;0.67;0.67;;;;;;;3.64;70.42;101737.84;5038488;28;20045;-73
2022/01/06 00:38:26;;;;;;;0.40;0.40;;;;;;;3.64;69.71;101737.84;5031238;28;20028;-73
2022/01/06 00:40:52;;;;;;;0.40;0.40;;;;;;;3.62;69.57;101745.50;5029954;28;20118;-72
2022/01/06 00:43:18;;;;;;;0.40;0.40;;;;;;;3.58;69.66;101748.66;5038755;28;20057;-74
2022/01/06 00:45:44;;;;;;;0.50;0.50;;;;;;;3.58;69.21;101743.50;5034057;28;20057;-73
2022/01/06 00:48:10;;;;;;;0.30;0.30;;;;;;;3.55;70.47;101743.28;5024858;28;20255;-73
2022/01/06 00:50:38;;;;;;;0.40;0.40;;;;;;;3.52;70.43;101751.72;5037213;28;20029;-72
2022/01/06 00:53:04;;;;;;;0.50;0.50;;;;;;;3.50;70.07;101750.72;5038595;28;20289;-73
2022/01/06 00:55:36;;;;;;;0.30;0.30;;;;;;;3.49;70.07;101742.84;5035830;28;20025;-74
2022/01/06 00:58:03;;;;;;;0.50;0.50;;;;;;;3.51;69.96;101749.03;5029407;28;20270;-73
2022/01/06 01:00:37;;;;;;;0.33;0.33;;;;;;;3.53;70.48;101758.72;5034618;28;20025;-73
2022/01/06 01:03:04;;;;;;;0.40;0.40;;;;;;;3.53;70.98;101753.53;5018741;28;20022;-73
2022/01/06 01:05:30;;;;;;;0.30;0.30;;;;;;;3.53;71.33;101760.38;5024649;28;20056;-74
2022/01/06 01:07:55;;;;;;;0.50;0.50;;;;;;;3.48;72.12;101764.34;5034030;28;20025;-74
2022/01/06 01:10:21;;;;;;;0.40;0.40;;;;;;;3.46;73.02;101766.81;5026421;28;20061;-73
2022/01/06 01:12:48;;;;;;;0.30;0.30;;;;;;;3.45;72.74;101767.63;5018573;28;20058;-73
2022/01/06 01:15:19;;;;;;;0.30;0.30;;;;;;;3.42;72.99;101764.78;5034571;28;20025;-74
2022/01/06 01:17:47;;;;;;;0.30;0.30;;;;;;;3.39;74.33;101777.53;5037865;28;20116;-73
2022/01/06 01:20:13;;;;;;;0.50;0.50;;;;;;;3.31;75.01;101779.56;5038724;28;20025;-74
2022/01/06 01:22:39;;;;;;;0.30;0.30;;;;;;;3.27;74.47;101774.94;5022379;28;20128;-73
2022/01/06 01:25:04;;;;;;;0.30;0.30;;;;;;;3.24;74.75;101774.72;5018842;28;20104;-73
2022/01/06 01:27:35;;;;;;;0.30;0.30;;;;;;;3.18;75.45;101782.03;5018324;28;20037;-74
2022/01/06 01:30:09;;;;;;;0.30;0.30;;;;;;;3.09;76.39;101787.41;5018958;28;20049;-73
2022/01/06 01:32:36;;;;;;;0.30;0.30;;;;;;;2.99;76.71;101785.88;5019589;28;20025;-74
2022/01/06 01:35:03;;;;;;;0.30;0.30;;;;;;;2.88;77.53;101785.94;5037988;28;20079;-74
2022/01/06 01:37:30;;;;;;;0.30;0.30;;;;;;;2.77;77.80;101792.00;5032718;28;20034;-72
2022/01/06 01:39:56;;;;;;;0.30;0.30;;;;;;;2.67;78.20;101793.00;5033793;28;20032;-73
2022/01/06 01:42:22;;;;;;;0.30;0.30;;;;;;;2.58;78.64;101803.56;5036925;28;20299;-73
2022/01/06 01:44:49;;;;;;;0.37;0.37;;;;;;;2.53;78.59;101806.56;5018120;28;20018;-74
2022/01/06 01:47:16;;;;;;;0.40;0.40;;;;;;;2.49;79.22;101805.41;5024056;28;20029;-74
2022/01/06 01:49:56;;;;;;;0.40;0.40;;;;;;;2.47;79.48;101806.97;5037537;28;20025;-74
2022/01/06 01:52:21;;;;;;;0.30;0.30;;;;;;;2.46;79.54;101802.59;5037399;28;20026;-75
2022/01/06 01:54:47;;;;;;;0.20;0.20;;;;;;;2.46;79.67;101808.69;5017970;28;20705;-73
2022/01/06 01:57:12;;;;;;;0.30;0.30;;;;;;;2.46;79.66;101815.53;5029625;28;20037;-73
2022/01/06 01:59:37;;;;;;;0.30;0.30;;;;;;;2.46;79.19;101808.69;5036511;28;20396;-73
2022/01/06 02:02:03;;;;;;;0.33;0.33;;;;;;;2.45;79.35;101813.72;5034316;28;20025;-74
2022/01/06 02:04:28;;;;;;;0.30;0.30;;;;;;;2.40;79.67;101807.28;5037381;28;20065;-73
2022/01/06 02:06:54;;;;;;;0.30;0.30;;;;;;;2.43;78.94;101807.56;5036883;28;20108;-73
2022/01/06 02:09:19;;;;;;;0.37;0.37;;;;;;;2.43;78.93;101802.38;5027962;28;20036;-73
2022/01/06 02:11:45;;;;;;;0.30;0.30;;;;;;;2.39;79.29;101809.00;5016829;28;20117;-74
2022/01/06 02:14:10;;;;;;;0.37;0.37;;;;;;;2.33;79.72;101822.34;5023156;28;20395;-73
2022/01/06 02:16:37;;;;;;;0.30;0.30;;;;;;;2.27;79.89;101826.13;5032724;28;20033;-73
2022/01/06 02:19:03;;;;;;;0.30;0.30;;;;;;;2.19;80.23;101833.28;5019735;28;20034;-74
2022/01/06 02:21:28;;;;;;;0.30;0.30;;;;;;;2.11;80.49;101830.09;5018255;28;20278;-74
2022/01/06 02:23:53;;;;;;;0.30;0.30;;;;;;;2.04;80.56;101833.88;5037995;28;20032;-74
2022/01/06 02:26:19;;;;;;;0.30;0.30;;;;;;;1.98;80.75;101830.81;5036408;28;20041;-73
2022/01/06 02:28:44;;;;;;;0.30;0.30;;;;;;;1.96;81.04;101839.22;5023229;28;20129;-73
2022/01/06 02:31:09;;;;;;;0.30;0.30;;;;;;;1.90;81.08;101827.63;5018001;28;20022;-75
2022/01/06 02:33:36;;;;;;;0.20;0.20;;;;;;;1.90;81.32;101831.88;5017349;28;20048;-72
2022/01/06 02:36:01;;;;;;;0.30;0.30;;;;;;;1.93;81.31;101837.28;5020297;28;20096;-74
2022/01/06 02:38:27;;;;;;;0.20;0.20;;;;;;;1.99;81.58;101837.78;5022071;28;20412;-73
2022/01/06 02:40:52;;;;;;;0.30;0.30;;;;;;;2.04;81.25;101840.72;5017637;28;20311;-72
2022/01/06 02:43:19;;;;;;;0.30;0.30;;;;;;;2.10;80.91;101850.66;5024358;28;20304;-73
2022/01/06 02:45:45;;;;;;;0.30;0.30;;;;;;;2.17;81.18;101846.09;5036983;28;20048;-73
2022/01/06 02:48:14;;;;;;;0.30;0.30;;;;;;;2.20;80.95;101854.06;5032472;28;20312;-73
2022/01/06 02:50:41;;;;;;;0.30;0.30;;;;;;;2.23;81.32;101856.00;5030337;28;20276;-73
2022/01/06 02:53:07;;;;;;;0.30;0.30;;;;;;;2.26;80.99;101860.50;5027347;28;20053;-72
2022/01/06 02:55:35;;;;;;;0.40;0.40;;;;;;;2.33;80.57;101866.31;5024512;28;20018;-73
2022/01/06 02:58:00;;;;;;;0.30;0.30;;;;;;;2.39;80.51;101867.53;5025482;28;20043;-74
2022/01/06 03:00:26;;;;;;;0.30;0.30;;;;;;;2.43;80.86;101861.84;5026182;28;20655;-73
2022/01/06 03:02:51;;;;;;;0.40;0.40;;;;;;;2.52;79.74;101867.72;5024069;28;20435;-74
2022/01/06 03:05:18;;;;;;;0.30;0.30;;;;;;;2.60;79.81;101857.97;5025698;28;20656;-73
2022/01/06 03:07:43;;;;;;;0.20;0.20;;;;;;;2.73;78.53;101863.31;5026741;28;20037;-73
2022/01/06 03:10:12;;;;;;;0.30;0.30;;;;;;;2.84;77.91;101850.28;5024886;28;20383;-75
2022/01/06 03:12:41;;;;;;;0.30;0.30;;;;;;;2.90;76.93;101843.00;5026799;28;20040;-73
2022/01/06 03:15:17;;;;;;;0.33;0.33;;;;;;;2.88;76.88;101847.16;5030974;28;20399;-74
2022/01/06 03:17:46;;;;;;;0.33;0.33;;;;;;;2.81;76.85;101838.00;5027377;28;20032;-73
2022/01/06 03:20:13;;;;;;;0.40;0.40;;;;;;;2.76;76.07;101849.72;5030734;28;20040;-73
2022/01/06 03:22:38;;;;;;;0.40;0.40;;;;;;;2.79;75.96;101846.47;5029061;28;20029;-73
2022/01/06 03:25:05;;;;;;;0.30;0.30;;;;;;;2.84;75.15;101846.03;5026596;28;20627;-73
2022/01/06 03:27:31;;;;;;;0.30;0.30;;;;;;;2.85;77.46;101845.22;5030278;28;20035;-73
2022/01/06 03:29:56;;;;;;;0.30;0.30;;;;;;;2.80;78.15;101849.13;5029313;28;20014;-73
2022/01/06 03:32:22;;;;;;;0.30;0.30;;;;;;;2.77;78.30;101863.53;5029301;28;20348;-73
2022/01/06 03:34:47;;;;;;;0.30;0.30;;;;;;;2.77;76.56;101886.81;5030474;28;20013;-73
2022/01/06 03:37:13;;;;;;;0.30;0.30;;;;;;;2.91;75.16;101890.47;5028667;28;20323;-73
2022/01/06 03:39:40;;;;;;;0.30;0.30;;;;;;;2.98;76.59;101898.81;5026983;28;20346;-73
2022/01/06 03:42:06;;;;;;;0.30;0.30;;;;;;;3.01;77.85;101898.16;5027828;28;20122;-72
2022/01/06 03:44:31;;;;;;;0.30;0.30;;;;;;;3.00;78.55;101881.69;5027362;28;20073;-73
2022/01/06 03:46:57;;;;;;;0.30;0.30;;;;;;;2.96;79.61;101895.22;5029322;28;20079;-72
2022/01/06 03:49:22;;;;;;;0.20;0.20;;;;;;;2.89;79.80;101887.75;5027515;28;20161;-72
2022/01/06 03:51:48;;;;;;;0.20;0.20;;;;;;;2.81;80.93;101883.69;5026531;28;20273;-73
2022/01/06 03:54:13;;;;;;;0.20;0.20;;;;;;;2.75;81.53;101897.94;5029282;28;20475;-73
2022/01/06 03:56:38;;;;;;;0.20;0.20;;;;;;;2.70;81.87;101899.28;5020361;28;20057;-72
2022/01/06 03:59:04;;;;;;;0.30;0.30;;;;;;;2.64;82.52;101897.91;5020072;28;20054;-72
2022/01/06 04:01:30;;;;;;;0.20;0.20;;;;;;;2.54;83.25;101897.19;5019808;28;20036;-73
2022/01/06 04:03:55;;;;;;;0.20;0.20;;;;;;;2.44;83.65;101898.13;5025684;28;20107;-73
2022/01/06 04:06:21;;;;;;;0.23;0.23;;;;;;;2.36;83.81;101898.34;5029682;28;20342;-71
2022/01/06 04:08:46;;;;;;;0.30;0.30;;;;;;;2.32;84.11;101902.38;5036668;28;20370;-73
2022/01/06 04:11:11;;;;;;;0.10;0.10;;;;;;;2.27;84.38;101895.91;5039349;28;20049;-71
2022/01/06 04:13:37;;;;;;;0.20;0.20;;;;;;;2.18;84.52;101901.28;5039464;28;20033;-72
2022/01/06 04:16:07;;;;;;;0.20;0.20;;;;;;;2.11;84.75;101898.97;5040107;28;20021;-72
2022/01/06 04:18:32;;;;;;;0.27;0.27;;;;;;;2.00;84.75;101892.97;5037931;28;20021;-73
2022/01/06 04:20:57;;;;;;;0.20;0.20;;;;;;;1.95;84.93;101889.09;5025651;28;20569;-72
2022/01/06 04:23:23;;;;;;;0.13;0.13;;;;;;;1.91;84.99;101895.69;5018915;28;20368;-73
2022/01/06 04:25:48;;;;;;;0.20;0.20;;;;;;;1.87;84.96;101902.28;5019805;28;20026;-73
2022/01/06 04:28:13;;;;;;;0.20;0.20;;;;;;;1.85;85.27;101903.84;5026439;28;20030;-73
2022/01/06 04:30:39;;;;;;;0.20;0.20;;;;;;;1.83;85.32;101904.50;5038459;28;20025;-72
2022/01/06 04:33:04;;;;;;;0.10;0.10;;;;;;;1.82;85.41;101910.44;5039151;28;20065;-72
2022/01/06 04:35:29;;;;;;;0.27;0.27;;;;;;;1.81;85.48;101911.22;5020930;28;20104;-72
2022/01/06 04:37:55;;;;;;;0.10;0.10;;;;;;;1.83;85.62;101917.41;5023369;28;20091;-73
2022/01/06 04:40:20;;;;;;;0.13;0.13;;;;;;;1.91;85.10;101911.19;5030871;28;20044;-73
2022/01/06 04:42:46;;;;;;;0.13;0.13;;;;;;;2.00;84.45;101903.28;5039078;28;20116;-72
2022/01/06 04:45:11;;;;;;;0.20;0.20;;;;;;;2.06;84.37;101903.78;5039029;28;20040;-73
2022/01/06 04:47:36;;;;;;;0.10;0.10;;;;;;;2.07;84.50;101900.41;5035565;28;20380;-74
2022/01/06 04:50:03;;;;;;;0.20;0.20;;;;;;;2.05;84.65;101901.94;5018893;28;20036;-74
2022/01/06 04:52:28;;;;;;;0.20;0.20;;;;;;;2.02;84.45;101910.41;5018969;28;20026;-73
2022/01/06 04:54:54;;;;;;;0.20;0.20;;;;;;;2.00;84.73;101905.88;5019077;28;20288;-73
2022/01/06 04:57:19;;;;;;;0.20;0.20;;;;;;;1.99;84.39;101912.72;5019710;28;20049;-73
2022/01/06 04:59:44;;;;;;;0.10;0.10;;;;;;;1.99;84.39;101914.41;5039049;28;20087;-71
2022/01/06 05:02:10;;;;;;;0.17;0.17;;;;;;;2.00;84.02;101918.78;5022554;28;20302;-72
2022/01/06 05:04:35;;;;;;;0.13;0.13;;;;;;;2.01;84.33;101920.59;5019420;28;20296;-73
2022/01/06 05:07:00;;;;;;;0.10;0.10;;;;;;;1.96;84.50;101921.88;5024061;28;20107;-72
2022/01/06 05:09:26;;;;;;;0.20;0.20;;;;;;;1.92;84.60;101921.66;5021064;28;20415;-73
2022/01/06 05:11:51;;;;;;;0.20;0.20;;;;;;;1.87;84.79;101917.78;5018484;28;20103;-73
2022/01/06 05:14:16;;;;;;;0.20;0.20;;;;;;;1.83;84.92;101917.41;5019143;28;20040;-71
2022/01/06 05:16:42;;;;;;;0.20;0.20;;;;;;;1.77;85.17;101923.00;5019527;28;20310;-73
2022/01/06 05:19:07;;;;;;;0.23;0.23;;;;;;;1.72;85.40;101926.88;5028919;28;20037;-72
2022/01/06 05:21:33;;;;;;;0.10;0.10;;;;;;;1.67;85.58;101931.66;5038199;28;20334;-73
2022/01/06 05:23:59;;;;;;;0.20;0.20;;;;;;;1.60;85.49;101935.44;5038081;28;20055;-74
2022/01/06 05:26:24;;;;;;;0.30;0.30;;;;;;;1.57;85.56;101937.78;5029730;28;20076;-72
2022/01/06 05:28:50;;;;;;;0.20;0.20;;;;;;;1.52;85.72;101931.31;5018433;28;20037;-72
2022/01/06 05:31:15;;;;;;;0.20;0.20;;;;;;;1.46;85.66;101929.13;5018299;28;20034;-72
2022/01/06 05:33:40;;;;;;;0.30;0.30;;;;;;;1.40;85.68;101930.28;5029083;28;20075;-72
2022/01/06 05:36:06;;;;;;;0.20;0.20;;;;;;;1.32;85.79;101930.53;5036912;28;20346;-72
2022/01/06 05:38:31;;;;;;;0.20;0.20;;;;;;;1.28;86.01;101927.59;5036759;28;20045;-73
2022/01/06 05:40:57;;;;;;;0.20;0.20;;;;;;;1.21;86.15;101932.25;5026693;28;20032;-71
2022/01/06 05:43:23;;;;;;;0.20;0.20;;;;;;;1.18;86.26;101933.69;5018415;28;20112;-73
2022/01/06 05:45:51;;;;;;;0.20;0.20;;;;;;;1.12;86.51;101928.00;5018135;28;20054;-72
2022/01/06 05:48:17;;;;;;;0.20;0.20;;;;;;;1.06;86.46;101936.13;5025673;28;20291;-73
2022/01/06 05:50:42;;;;;;;0.30;0.30;;;;;;;1.01;86.59;101946.06;5037477;28;20292;-73
2022/01/06 05:53:08;;;;;;;0.20;0.20;;;;;;;0.96;86.70;101939.59;5036875;28;20634;-71
2022/01/06 05:55:33;;;;;;;0.30;0.30;;;;;;;0.93;86.61;101950.53;5022030;28;20369;-73
2022/01/06 05:57:58;;;;;;;0.20;0.20;;;;;;;0.88;86.51;101946.66;5022391;28;20376;-72
2022/01/06 06:00:24;;;;;;;0.20;0.20;;;;;;;0.85;86.65;101953.25;5037465;28;20396;-71
2022/01/06 06:02:50;;;;;;;0.20;0.20;;;;;;;0.81;86.71;101952.97;5035888;28;20037;-72
2022/01/06 06:05:16;;;;;;;0.10;0.10;;;;;;;0.79;86.86;101958.78;5035934;28;20034;-72
2022/01/06 06:07:41;;;;;;;0.20;0.20;;;;;;;0.75;86.91;101959.28;5016700;28;20549;-73
2022/01/06 06:10:07;;;;;;;0.20;0.20;;;;;;;0.68;86.83;101953.59;5036351;28;20029;-72
2022/01/06 06:12:33;;;;;;;0.27;0.27;;;;;;;0.64;87.04;101956.66;5035808;28;20026;-72
2022/01/06 06:14:58;;;;;;;0.20;0.20;;;;;;;0.61;86.96;101966.72;5036897;28;20701;-72
2022/01/06 06:17:23;;;;;;;0.20;0.20;;;;;;;0.59;87.06;101972.53;5035605;28;20092;-72
2022/01/06 06:19:49;;;;;;;0.20;0.20;;;;;;;0.57;87.30;101974.06;5037173;28;20431;-72
2022/01/06 06:22:14;;;;;;;0.20;0.20;;;;;;;0.57;87.21;101974.06;5035176;28;20037;-72
2022/01/06 06:24:39;;;;;;;0.20;0.20;;;;;;;0.56;87.19;101977.41;5017427;28;20424;-72
2022/01/06 06:27:06;;;;;;;0.20;0.20;;;;;;;0.54;87.13;101983.34;5029677;28;20072;-72
2022/01/06 06:29:31;;;;;;;0.10;0.10;;;;;;;0.52;87.43;101979.75;5028109;28;20079;-72
2022/01/06 06:31:57;;;;;;;0.20;0.20;;;;;;;0.49;87.21;101983.72;5023207;28;20575;-71
2022/01/06 06:34:26;;;;;;;0.20;0.20;;;;;;;0.43;87.27;101993.50;5019839;28;20026;-72
2022/01/06 06:36:51;;;;;;;0.20;0.20;;;;;;;0.39;87.24;101995.78;4999735;28;20042;-71
2022/01/06 06:39:16;;;;;;;0.10;0.10;;;;;;;0.35;87.30;101996.28;5017700;28;20280;-73
2022/01/06 06:41:42;;;;;;;0.20;0.20;;;;;;;0.34;87.46;101999.63;5016429;28;20101;-72
2022/01/06 06:44:07;;;;;;;0.10;0.10;;;;;;;0.32;87.55;102008.00;5017277;28;20289;-72
2022/01/06 06:46:32;;;;;;;0.30;0.30;;;;;;;0.28;87.56;102009.41;5016854;28;20040;-73
2022/01/06 06:48:58;;;;;;;0.30;0.30;;;;;;;0.23;87.57;102010.66;5022716;28;20102;-72
2022/01/06 06:51:23;;;;;;;0.20;0.20;;;;;;;0.19;87.83;102006.00;5037011;28;20049;-72
2022/01/06 06:53:49;;;;;;;0.20;0.20;;;;;;;0.16;87.85;102010.88;5036208;28;20045;-72
2022/01/06 06:56:14;;;;;;;0.20;0.20;;;;;;;0.11;87.67;102013.03;5037034;28;20041;-72
2022/01/06 06:58:39;;;;;;;0.20;0.20;;;;;;;0.09;88.01;102005.19;5049484;28;20351;-72
2022/01/06 07:01:05;;;;;;;0.10;0.10;;;;;;;0.09;88.43;102000.03;5057040;28;20056;-72
2022/01/06 07:03:30;;;;;;;0.17;0.17;;;;;;;0.08;88.09;102005.97;5056279;28;20035;-72
2022/01/06 07:05:56;;;;;;;0.20;0.20;;;;;;;0.06;88.13;102004.91;5046989;28;20037;-71
2022/01/06 07:08:21;;;;;;;0.20;0.20;;;;;;;0.04;88.11;102006.44;5037024;28;20040;-71
2022/01/06 07:10:47;;;;;;;0.20;0.20;;;;;;;0.04;88.02;102008.09;5036339;28;20061;-71
2022/01/06 07:13:16;;;;;;;0.20;0.20;;;;;;;0.02;88.24;102010.56;5036914;28;20044;-72
2022/01/06 07:15:43;;;;;;;0.30;0.30;;;;;;;0.01;88.03;102008.75;5036743;28;20036;-72
2022/01/06 07:18:08;;;;;;;0.23;0.23;;;;;;;0.01;88.35;102002.69;5036648;28;20330;-72
2022/01/06 07:20:34;;;;;;;0.30;0.30;;;;;;;0.02;88.24;102012.22;5035383;28;20283;-72
2022/01/06 07:22:59;;;;;;;0.30;0.30;;;;;;;0.01;88.27;102013.91;5017072;28;20034;-71
2022/01/06 07:25:25;;;;;;;0.20;0.20;;;;;;;0.01;88.81;102015.56;5016040;28;20050;-72
2022/01/06 07:27:50;;;;;;;0.10;0.10;;;;;;;0.01;88.26;102015.56;5016986;28;20410;-72
2022/01/06 07:30:15;;;;;;;0.10;0.10;;;;;;;0.01;88.60;102029.34;5017238;28;20336;-72
2022/01/06 07:32:42;;;;;;;0.20;0.20;;;;;;;0.03;88.57;102024.31;5015622;28;20025;-71
2022/01/06 07:35:08;;;;;;;0.20;0.20;;;;;;;0.07;88.37;102029.00;5016964;28;20026;-72
2022/01/06 07:37:34;;;;;;;0.20;0.20;;;;;;;0.09;88.67;102022.31;5016895;28;20497;-72
2022/01/06 07:39:59;;;;;;;0.20;0.20;;;;;;;0.11;88.58;102024.25;5017260;28;20053;-73
2022/01/06 07:42:27;;;;;;;0.10;0.10;;;;;;;0.10;88.59;102025.03;5016669;28;20025;-72
2022/01/06 07:44:55;;;;;;;0.20;0.20;;;;;;;0.10;88.54;102027.59;5016561;28;20388;-73
2022/01/06 07:47:20;;;;;;;0.20;0.20;;;;;;;0.10;88.43;102031.84;5016663;28;20288;-72
2022/01/06 07:49:45;;;;;;;0.10;0.10;;;;;;;0.09;88.38;102033.53;5016614;28;20280;-71
2022/01/06 07:52:11;;;;;;;0.20;0.20;;;;;;;0.08;88.47;102033.38;5017041;28;20273;-71
2022/01/06 07:54:36;;;;;;;0.20;0.20;;;;;;;0.08;88.57;102033.38;5016877;28;20281;-71
2022/01/06 07:57:02;;;;;;;0.20;0.20;;;;;;;0.08;88.68;102035.97;5017226;28;20076;-72
2022/01/06 07:59:28;;;;;;;0.20;0.20;;;;;;;0.12;88.60;102043.19;5018904;28;20076;-71
2022/01/06 08:01:53;;;;;;;0.20;0.20;;;;;;;0.12;88.79;102038.94;5019131;28;20041;-71
2022/01/06 08:04:18;;;;;;;0.13;0.13;;;;;;;0.10;88.55;102043.06;5019323;28;20456;-72
2022/01/06 08:06:43;;;;;;;0.13;0.13;;;;;;;0.09;88.46;102048.97;5035176;28;20017;-72
2022/01/06 08:09:09;;;;;;;0.10;0.10;;;;;;;0.05;88.57;102054.59;5040403;28;20022;-71
2022/01/06 08:11:34;;;;;;;0.27;0.27;;;;;;;0.04;88.39;102057.03;5039938;28;20052;-72
2022/01/06 08:14:00;;;;;;;0.10;0.10;;;;;;;0.03;88.59;102058.72;5039887;28;20029;-73
2022/01/06 08:16:25;;;;;;;0.20;0.20;;;;;;;0.06;88.42;102058.09;5039939;28;20060;-72
2022/01/06 08:18:51;;;;;;;0.13;0.13;;;;;;;0.09;88.54;102063.53;5039333;28;20340;-73
2022/01/06 08:21:17;;;;;;;0.10;0.10;;;;;;;0.13;88.66;102070.78;5032750;28;20323;-72
2022/01/06 08:23:42;;;;;;;0.20;0.20;;;;;;;0.16;88.47;102064.97;5019932;28;20105;-72
2022/01/06 08:26:08;;;;;;;0.10;0.10;;;;;;;0.19;88.47;102065.25;5031221;28;20030;-72
2022/01/06 08:28:34;;;;;;;0.10;0.10;;;;;;;0.24;88.50;102079.44;5038735;28;20036;-72
2022/01/06 08:30:59;;;;;;;0.10;0.10;;;;;;;0.29;88.45;102077.31;5039981;28;20271;-72
2022/01/06 08:33:25;;;;;;;0.10;0.10;;;;;;;0.35;88.55;102068.44;5038994;28;20036;-73
2022/01/06 08:35:51;;;;;;;0.13;0.13;;;;;;;0.44;88.54;102073.50;5039529;28;20021;-71
2022/01/06 08:38:16;;;;;;;0.20;0.20;;;;;;;0.54;88.04;102078.72;5038733;28;20380;-73
2022/01/06 08:40:41;;;;;;;0.20;0.20;;;;;;;0.65;88.42;102074.53;5039343;28;20285;-73
2022/01/06 08:43:13;;;;;;;0.23;0.23;;;;;;;0.75;88.27;102075.34;5039214;28;20354;-72
2022/01/06 08:45:50;;;;;;;0.10;0.10;;;;;;;0.86;88.05;102076.28;5038611;28;20037;-73
2022/01/06 08:48:15;;;;;;;0.10;0.10;;;;;;;0.91;87.66;102073.31;5037964;28;20318;-72
2022/01/06 08:50:40;;;;;;;0.10;0.10;;;;;;;1.01;87.49;102076.72;5039171;28;20276;-72
2022/01/06 08:53:06;;;;;;;0.20;0.20;;;;;;;1.09;87.32;102081.78;5030702;28;20037;-73
2022/01/06 08:55:31;;;;;;;0.10;0.10;;;;;;;1.15;86.80;102080.47;5019835;28;20080;-72
2022/01/06 08:57:57;;;;;;;0.10;0.10;;;;;;;1.22;87.10;102086.31;5018567;28;20030;-74
2022/01/06 09:00:23;;;;;;;0.10;0.10;;;;;;;1.36;87.27;102082.34;5025792;28;20017;-72
2022/01/06 09:02:49;;;;;;;0.10;0.10;;;;;;;1.58;87.41;102080.66;5037016;28;20037;-73
2022/01/06 09:05:15;;;;;;;0.10;0.10;;;;;;;1.71;87.11;102078.38;5037896;28;20295;-72
2022/01/06 09:07:41;;;;;;;0.10;0.10;;;;;;;1.82;86.80;102070.59;5036636;28;20041;-73
2022/01/06 09:10:07;;;;;;;0.10;0.10;;;;;;;1.96;86.14;102071.75;5037775;28;20283;-73
2022/01/06 09:12:32;;;;;;;0.10;0.10;;;;;;;2.06;86.06;102071.75;5038232;28;20040;-73
2022/01/06 09:14:58;;;;;;;0.17;0.17;;;;;;;2.15;85.77;102075.09;5038441;28;20025;-74
2022/01/06 09:17:23;;;;;;;0.20;0.20;;;;;;;2.12;84.79;102073.94;5038231;28;20037;-73
2022/01/06 09:19:49;;;;;;;0.30;0.30;;;;;;;2.04;84.36;102071.63;5038508;28;20029;-72
2022/01/06 09:22:14;;;;;;;0.10;0.10;;;;;;;1.99;85.06;102078.06;5037852;28;20040;-73
2022/01/06 09:24:39;;;;;;;0.10;0.10;;;;;;;1.96;85.17;102072.66;5037731;28;20037;-72
2022/01/06 09:27:05;;;;;;;0.20;0.20;;;;;;;2.01;85.24;102076.53;5025613;28;20091;-74
2022/01/06 09:29:30;;;;;;;0.20;0.20;;;;;;;2.08;85.43;102075.38;5018447;28;20029;-72
2022/01/06 09:31:56;;;;;;;0.20;0.20;;;;;;;2.12;85.32;102073.94;5018006;28;20044;-73
2022/01/06 09:34:21;;;;;;;0.23;0.23;;;;;;;2.17;85.28;102075.19;5018280;28;20025;-72
2022/01/06 09:36:46;;;;;;;0.10;0.10;;;;;;;2.16;84.90;102087.22;5017903;28;20065;-72
2022/01/06 09:39:12;;;;;;;0.20;0.20;;;;;;;2.18;84.85;102084.78;5018195;28;20046;-71
2022/01/06 09:41:38;;;;;;;0.20;0.20;;;;;;;2.28;84.70;102087.34;5033116;28;20033;-72
2022/01/06 09:44:03;;;;;;;0.20;0.20;;;;;;;2.45;84.44;102093.88;5037973;28;20056;-72
2022/01/06 09:46:30;;;;;;;0.20;0.20;;;;;;;2.53;83.60;102094.50;5037209;28;20107;-73
2022/01/06 09:48:59;;;;;;;0.10;0.10;;;;;;;2.61;83.45;102096.03;5037347;28;20407;-73
2022/01/06 09:51:26;;;;;;;0.20;0.20;;;;;;;2.77;82.98;102093.75;5036593;28;20296;-73
2022/01/06 09:53:53;;;;;;;0.20;0.20;;;;;;;2.96;81.98;102089.28;5037032;28;20562;-73
2022/01/06 09:56:20;;;;;;;0.20;0.20;;;;;;;3.08;81.66;102096.22;5017894;28;20052;-72
2022/01/06 09:58:45;;;;;;;0.30;0.30;;;;;;;3.23;81.12;102104.31;5030810;28;20350;-72
2022/01/06 10:01:11;;;;;;;0.20;0.20;;;;;;;3.44;80.28;102090.41;5037690;28;20376;-72
2022/01/06 10:03:48;;;;;;;0.30;0.30;;;;;;;3.67;79.45;102099.06;5036400;28;20025;-72
2022/01/06 10:06:18;;;;;;;0.40;0.40;;;;;;;3.84;78.86;102094.25;5037476;28;20033;-72
2022/01/06 10:08:56;;;;;;;0.27;0.27;;;;;;;4.12;78.66;102088.59;5037473;28;20029;-73
2022/01/06 10:11:26;;;;;;;0.30;0.30;;;;;;;4.36;78.21;102091.19;5036337;28;20057;-72
2022/01/06 10:13:59;;;;;;;0.20;0.20;;;;;;;4.58;78.05;102084.97;5037472;28;20051;-72
2022/01/06 10:16:26;;;;;;;0.40;0.40;;;;;;;4.78;77.44;102094.19;5037130;28;20036;-72
2022/01/06 10:18:58;;;;;;;0.37;0.37;;;;;;;4.97;76.97;102090.34;5037558;28;20109;-72
2022/01/06 10:21:24;;;;;;;0.47;0.47;;;;;;;5.06;77.15;102099.66;5035975;28;20060;-73
2022/01/06 10:24:24;;;;;;;0.27;0.27;;;;;;;5.20;75.73;102085.06;5036007;28;20396;-73
2022/01/06 10:27:04;;;;;;;0.40;0.40;;;;;;;5.49;75.00;102086.19;5036301;28;20037;-72
2022/01/06 10:29:35;;;;;;;0.50;0.50;;;;;;;5.58;73.36;102074.63;5037244;28;20025;-72
2022/01/06 10:32:12;;;;;;;0.40;0.40;;;;;;;5.52;73.85;102074.22;5036895;28;20060;-73
2022/01/06 10:34:40;;;;;;;0.40;0.40;;;;;;;5.40;74.08;102075.16;5037166;28;20100;-72
2022/01/06 10:37:25;;;;;;;0.40;0.40;;;;;;;5.41;75.04;102074.38;5035339;28;20033;-71
2022/01/06 10:39:52;;;;;;;0.47;0.47;;;;;;;5.35;74.50;102077.44;5033477;28;20308;-73
2022/01/06 10:42:22;;;;;;;0.53;0.53;;;;;;;5.23;74.68;102081.75;5023783;28;20438;-74
2022/01/06 10:45:00;;;;;;;0.40;0.40;;;;;;;5.05;73.97;102082.28;5036744;28;20124;-72
2022/01/06 10:47:34;;;;;;;0.30;0.30;;;;;;;5.07;74.94;102082.41;5037186;28;20029;-72
2022/01/06 10:50:11;;;;;;;0.37;0.37;;;;;;;5.28;73.84;102072.63;5037307;28;20033;-73
2022/01/06 10:52:39;;;;;;;0.60;0.60;;;;;;;5.48;73.03;102071.41;5036809;28;20025;-72
2022/01/06 10:55:13;;;;;;;0.40;0.40;;;;;;;5.44;72.42;102072.00;5036550;28;20037;-72
2022/01/06 10:58:09;;;;;;;0.50;0.50;;;;;;;5.30;72.76;102075.31;5035924;28;20038;-72
2022/01/06 11:00:45;;;;;;;0.50;0.50;;;;;;;5.17;72.39;102071.84;5036709;28;20037;-73
2022/01/06 11:03:16;;;;;;;0.30;0.30;;;;;;;5.02;73.24;102076.88;5036684;28;20284;-73
2022/01/06 11:05:46;;;;;;;0.40;0.40;;;;;;;4.98;73.56;102082.63;5036707;28;20096;-71
2022/01/06 11:08:13;;;;;;;0.50;0.50;;;;;;;4.90;74.38;102078.59;5037078;28;20124;-72
2022/01/06 11:10:46;;;;;;;0.40;0.40;;;;;;;4.85;74.39;102079.97;5036610;28;20060;-72
2022/01/06 11:13:12;;;;;;;0.50;0.50;;;;;;;4.87;72.87;102079.31;5035739;28;20037;-71
2022/01/06 11:15:37;;;;;;;0.50;0.50;;;;;;;4.81;72.98;102089.25;5036924;28;20101;-72
2022/01/06 11:18:04;;;;;;;0.40;0.40;;;;;;;4.76;72.97;102077.59;5035689;28;20307;-73
2022/01/06 11:20:30;;;;;;;0.40;0.40;;;;;;;4.71;74.02;102076.38;5036736;28;20021;-74
2022/01/06 11:22:57;;;;;;;0.50;0.50;;;;;;;4.67;74.29;102078.75;5036741;28;20025;-73
2022/01/06 11:25:30;;;;;;;0.40;0.40;;;;;;;4.68;73.78;102074.47;5036493;28;20041;-74
2022/01/06 11:28:09;;;;;;;0.40;0.40;;;;;;;4.70;73.81;102074.56;5036919;28;20033;-72
2022/01/06 11:30:55;;;;;;;0.50;0.50;;;;;;;4.76;73.13;102075.94;5035909;28;20037;-75
2022/01/06 11:33:20;;;;;;;0.30;0.30;;;;;;;4.69;72.25;102068.50;5037162;28;20380;-74
2022/01/06 11:35:57;;;;;;;0.40;0.40;;;;;;;4.63;72.64;102068.97;5040633;28;20032;-73
2022/01/06 11:38:26;;;;;;;0.30;0.30;;;;;;;4.62;72.92;102067.13;5040698;28;20033;-74
2022/01/06 11:40:53;;;;;;;0.43;0.43;;;;;;;4.65;73.18;102071.63;5040473;28;20033;-74